sensor_id;sensor_type;location;lat;lon;timestamp;pressure;altitude;pressure_sealevel;temperature;humidity
37778;BME280;23615;51.506;7.678;2023-08-01T00:00:09;98365.91;;;17.37;100.00
37778;BME280;23615;51.506;7.678;2023-08-01T00:02:34;98364.97;;;17.41;100.00
37778;BME280;23615;51.506;7.678;2023-08-01T00:05:00;98368.59;;;17.37;100.00
37778;BME280;23615;51.506;7.678;2023-08-01T00:07:27;98364.09;;;17.54;100.00
37778;BME280;23615;51.506;7.678;2023-08-01T00:09:52;98356.13;;;17.49;100.00
37778;BME280;23615;51.506;7.678;2023-08-01T00:12:18;98361.72;;;17.53;100.00
37778;BME280;23615;51.506;7.678;2023-08-01T00:14:43;98359.88;;;17.40;100.00
37778;BME280;23615;51.506;7.678;2023-08-01T00:17:08;98357.53;;;17.38;100.00
37778;BME280;23615;51.506;7.678;2023-08-01T00:19:33;98358.03;;;17.49;100.00
37778;BME280;23615;51.506;7.678;2023-08-01T00:21:59;98353.44;;;17.49;100.00
37778;BME280;23615;51.506;7.678;2023-08-01T00:24:24;98351.50;;;17.41;100.00
37778;BME280;23615;51.506;7.678;2023-08-01T00:26:50;98338.94;;;17.37;100.00
37778;BME280;23615;51.506;7.678;2023-08-01T00:29:15;98346.25;;;17.36;100.00
37778;BME280;23615;51.506;7.678;2023-08-01T00:31:40;98346.25;;;17.36;100.00
37778;BME280;23615;51.506;7.678;2023-08-01T00:34:06;98342.81;;;17.22;100.00
37778;BME280;23615;51.506;7.678;2023-08-01T00:36:31;98331.03;;;17.09;100.00
37778;BME280;23615;51.506;7.678;2023-08-01T00:38:57;98323.47;;;16.98;100.00
37778;BME280;23615;51.506;7.678;2023-08-01T00:41:22;98332.16;;;16.95;100.00
37778;BME280;23615;51.506;7.678;2023-08-01T00:43:48;98332.38;;;16.98;100.00
37778;BME280;23615;51.506;7.678;2023-08-01T00:46:13;98340.81;;;16.83;100.00
37778;BME280;23615;51.506;7.678;2023-08-01T00:48:39;98328.94;;;16.84;100.00
37778;BME280;23615;51.506;7.678;2023-08-01T00:51:05;98322.56;;;16.80;100.00
37778;BME280;23615;51.506;7.678;2023-08-01T00:53:32;98322.50;;;16.71;100.00
37778;BME280;23615;51.506;7.678;2023-08-01T00:56:00;98308.44;;;16.74;100.00
37778;BME280;23615;51.506;7.678;2023-08-01T00:58:26;98304.25;;;16.68;100.00
37778;BME280;23615;51.506;7.678;2023-08-01T01:00:51;98313.81;;;16.61;100.00
37778;BME280;23615;51.506;7.678;2023-08-01T01:03:17;98303.00;;;16.66;100.00
37778;BME280;23615;51.506;7.678;2023-08-01T01:05:49;98276.97;;;16.61;100.00
37778;BME280;23615;51.506;7.678;2023-08-01T01:08:16;98303.22;;;16.78;100.00
37778;BME280;23615;51.506;7.678;2023-08-01T01:10:41;98308.78;;;16.81;100.00
37778;BME280;23615;51.506;7.678;2023-08-01T01:13:07;98303.72;;;16.80;100.00
37778;BME280;23615;51.506;7.678;2023-08-01T01:15:32;98313.81;;;16.97;100.00
37778;BME280;23615;51.506;7.678;2023-08-01T01:17:58;98297.53;;;16.79;100.00
37778;BME280;23615;51.506;7.678;2023-08-01T01:20:23;98310.72;;;16.67;100.00
37778;BME280;23615;51.506;7.678;2023-08-01T01:22:53;98305.81;;;16.47;100.00
37778;BME280;23615;51.506;7.678;2023-08-01T01:25:20;98305.88;;;16.56;100.00
37778;BME280;23615;51.506;7.678;2023-08-01T01:27:48;98297.66;;;16.61;100.00
37778;BME280;23615;51.506;7.678;2023-08-01T01:30:15;98277.41;;;16.41;100.00
37778;BME280;23615;51.506;7.678;2023-08-01T01:32:40;98275.19;;;16.43;100.00
37778;BME280;23615;51.506;7.678;2023-08-01T01:35:06;98268.34;;;16.37;100.00
37778;BME280;23615;51.506;7.678;2023-08-01T01:37:31;98274.91;;;16.44;100.00
37778;BME280;23615;51.506;7.678;2023-08-01T01:39:57;98267.19;;;16.52;100.00
37778;BME280;23615;51.506;7.678;2023-08-01T01:42:22;98256.56;;;16.46;100.00
37778;BME280;23615;51.506;7.678;2023-08-01T01:44:47;98258.84;;;16.39;100.00
37778;BME280;23615;51.506;7.678;2023-08-01T01:47:13;98256.34;;;16.43;100.00
37778;BME280;23615;51.506;7.678;2023-08-01T01:49:38;98256.63;;;16.55;100.00
37778;BME280;23615;51.506;7.678;2023-08-01T01:52:04;98254.03;;;16.64;100.00
37778;BME280;23615;51.506;7.678;2023-08-01T01:54:29;98260.56;;;16.58;100.00
37778;BME280;23615;51.506;7.678;2023-08-01T01:56:54;98255.97;;;16.58;100.00
37778;BME280;23615;51.506;7.678;2023-08-01T01:59:20;98251.19;;;16.69;100.00
37778;BME280;23615;51.506;7.678;2023-08-01T02:01:45;98241.44;;;16.59;100.00
37778;BME280;23615;51.506;7.678;2023-08-01T02:04:11;98253.72;;;16.52;100.00
37778;BME280;23615;51.506;7.678;2023-08-01T02:06:36;98250.13;;;16.56;100.00
37778;BME280;23615;51.506;7.678;2023-08-01T02:09:01;98231.59;;;16.55;100.00
37778;BME280;23615;51.506;7.678;2023-08-01T02:11:27;98232.38;;;16.55;100.00
37778;BME280;23615;51.506;7.678;2023-08-01T02:13:52;98244.16;;;16.81;100.00
37778;BME280;23615;51.506;7.678;2023-08-01T02:16:17;98243.75;;;16.52;100.00
37778;BME280;23615;51.506;7.678;2023-08-01T02:18:43;98247.44;;;16.56;100.00
37778;BME280;23615;51.506;7.678;2023-08-01T02:21:08;98240.22;;;16.43;100.00
37778;BME280;23615;51.506;7.678;2023-08-01T02:23:33;98243.50;;;16.40;100.00
37778;BME280;23615;51.506;7.678;2023-08-01T02:26:01;98236.47;;;16.53;100.00
37778;BME280;23615;51.506;7.678;2023-08-01T02:28:26;98237.28;;;16.53;100.00
37778;BME280;23615;51.506;7.678;2023-08-01T02:30:52;98241.44;;;16.59;100.00
37778;BME280;23615;51.506;7.678;2023-08-01T02:33:17;98246.00;;;16.59;100.00
37778;BME280;23615;51.506;7.678;2023-08-01T02:35:42;98248.50;;;16.33;100.00
37778;BME280;23615;51.506;7.678;2023-08-01T02:38:08;98241.88;;;16.17;100.00
37778;BME280;23615;51.506;7.678;2023-08-01T02:40:33;98240.81;;;16.40;100.00
37778;BME280;23615;51.506;7.678;2023-08-01T02:42:58;98238.69;;;16.51;100.00
37778;BME280;23615;51.506;7.678;2023-08-01T02:45:24;98251.41;;;16.59;100.00
37778;BME280;23615;51.506;7.678;2023-08-01T02:47:49;98250.44;;;16.55;100.00
37778;BME280;23615;51.506;7.678;2023-08-01T02:50:14;98256.34;;;16.43;100.00
37778;BME280;23615;51.506;7.678;2023-08-01T02:52:39;98251.69;;;16.35;100.00
37778;BME280;23615;51.506;7.678;2023-08-01T02:55:05;98250.47;;;16.41;100.00
37778;BME280;23615;51.506;7.678;2023-08-01T02:57:30;98250.69;;;16.31;100.00
37778;BME280;23615;51.506;7.678;2023-08-01T02:59:56;98239.56;;;16.24;100.00
37778;BME280;23615;51.506;7.678;2023-08-01T03:02:21;98248.78;;;16.09;100.00
37778;BME280;23615;51.506;7.678;2023-08-01T03:04:46;98253.25;;;16.14;100.00
37778;BME280;23615;51.506;7.678;2023-08-01T03:07:12;98258.75;;;16.08;100.00
37778;BME280;23615;51.506;7.678;2023-08-01T03:09:37;98242.72;;;16.03;100.00
37778;BME280;23615;51.506;7.678;2023-08-01T03:12:03;98245.91;;;16.05;100.00
37778;BME280;23615;51.506;7.678;2023-08-01T03:14:28;98246.41;;;15.94;100.00
37778;BME280;23615;51.506;7.678;2023-08-01T03:16:54;98251.50;;;15.95;100.00
37778;BME280;23615;51.506;7.678;2023-08-01T03:19:19;98242.47;;;15.91;100.00
37778;BME280;23615;51.506;7.678;2023-08-01T03:21:44;98234.38;;;15.91;100.00
37778;BME280;23615;51.506;7.678;2023-08-01T03:24:10;98241.25;;;15.97;100.00
37778;BME280;23615;51.506;7.678;2023-08-01T03:26:35;98243.63;;;15.99;100.00
37778;BME280;23615;51.506;7.678;2023-08-01T03:29:01;98238.31;;;16.07;100.00
37778;BME280;23615;51.506;7.678;2023-08-01T03:31:27;98241.63;;;16.04;100.00
37778;BME280;23615;51.506;7.678;2023-08-01T03:33:52;98242.34;;;15.96;100.00
37778;BME280;23615;51.506;7.678;2023-08-01T03:36:18;98244.72;;;15.98;100.00
37778;BME280;23615;51.506;7.678;2023-08-01T03:38:43;98242.63;;;15.95;100.00
37778;BME280;23615;51.506;7.678;2023-08-01T03:41:08;98244.22;;;15.96;100.00
37778;BME280;23615;51.506;7.678;2023-08-01T03:43:34;98252.66;;;16.03;100.00
37778;BME280;23615;51.506;7.678;2023-08-01T03:45:59;98249.81;;;15.99;100.00
37778;BME280;23615;51.506;7.678;2023-08-01T03:48:24;98249.09;;;15.94;100.00
37778;BME280;23615;51.506;7.678;2023-08-01T03:50:50;98256.38;;;16.07;100.00
37778;BME280;23615;51.506;7.678;2023-08-01T03:53:15;98246.31;;;15.99;100.00
37778;BME280;23615;51.506;7.678;2023-08-01T03:55:40;98260.56;;;15.99;100.00
37778;BME280;23615;51.506;7.678;2023-08-01T03:58:07;98257.09;;;15.99;100.00
37778;BME280;23615;51.506;7.678;2023-08-01T04:00:32;98256.56;;;15.97;100.00
37778;BME280;23615;51.506;7.678;2023-08-01T04:02:59;98263.97;;;15.91;100.00
37778;BME280;23615;51.506;7.678;2023-08-01T04:05:25;98257.78;;;15.91;100.00
37778;BME280;23615;51.506;7.678;2023-08-01T04:07:50;98265.44;;;15.97;100.00
37778;BME280;23615;51.506;7.678;2023-08-01T04:10:15;98264.34;;;15.98;100.00
37778;BME280;23615;51.506;7.678;2023-08-01T04:12:41;98273.72;;;16.01;100.00
37778;BME280;23615;51.506;7.678;2023-08-01T04:15:08;98274.09;;;16.08;100.00
37778;BME280;23615;51.506;7.678;2023-08-01T04:17:33;98276.97;;;16.12;100.00
37778;BME280;23615;51.506;7.678;2023-08-01T04:19:58;98284.28;;;16.11;100.00
37778;BME280;23615;51.506;7.678;2023-08-01T04:22:24;98276.78;;;15.94;100.00
37778;BME280;23615;51.506;7.678;2023-08-01T04:24:49;98285.97;;;16.07;100.00
37778;BME280;23615;51.506;7.678;2023-08-01T04:27:15;98284.88;;;16.08;100.00
37778;BME280;23615;51.506;7.678;2023-08-01T04:29:40;98286.06;;;16.02;100.00
37778;BME280;23615;51.506;7.678;2023-08-01T04:32:06;98279.00;;;15.92;100.00
37778;BME280;23615;51.506;7.678;2023-08-01T04:34:31;98285.50;;;15.91;100.00
37778;BME280;23615;51.506;7.678;2023-08-01T04:36:57;98279.59;;;15.76;100.00
37778;BME280;23615;51.506;7.678;2023-08-01T04:39:22;98286.97;;;15.97;100.00
37778;BME280;23615;51.506;7.678;2023-08-01T04:41:47;98279.56;;;16.03;100.00
37778;BME280;23615;51.506;7.678;2023-08-01T04:44:14;98306.09;;;16.09;100.00
37778;BME280;23615;51.506;7.678;2023-08-01T04:46:40;98296.72;;;16.07;100.00
37778;BME280;23615;51.506;7.678;2023-08-01T04:49:05;98292.56;;;16.01;100.00
37778;BME280;23615;51.506;7.678;2023-08-01T04:51:30;98282.88;;;15.86;100.00
37778;BME280;23615;51.506;7.678;2023-08-01T04:53:56;98295.06;;;15.84;100.00
37778;BME280;23615;51.506;7.678;2023-08-01T04:56:21;98289.28;;;15.90;100.00
37778;BME280;23615;51.506;7.678;2023-08-01T04:58:46;98288.34;;;15.95;100.00
37778;BME280;23615;51.506;7.678;2023-08-01T05:01:11;98294.81;;;16.07;100.00
37778;BME280;23615;51.506;7.678;2023-08-01T05:03:37;98302.47;;;16.14;100.00
37778;BME280;23615;51.506;7.678;2023-08-01T05:06:02;98302.09;;;16.07;100.00
37778;BME280;23615;51.506;7.678;2023-08-01T05:08:28;98305.59;;;16.07;100.00
37778;BME280;23615;51.506;7.678;2023-08-01T05:10:53;98312.19;;;16.01;100.00
37778;BME280;23615;51.506;7.678;2023-08-01T05:13:19;98311.06;;;16.02;100.00
37778;BME280;23615;51.506;7.678;2023-08-01T05:15:45;98302.81;;;15.99;100.00
37778;BME280;23615;51.506;7.678;2023-08-01T05:18:12;98308.78;;;15.96;100.00
37778;BME280;23615;51.506;7.678;2023-08-01T05:20:37;98318.34;;;16.02;100.00
37778;BME280;23615;51.506;7.678;2023-08-01T05:23:03;98322.94;;;16.01;100.00
37778;BME280;23615;51.506;7.678;2023-08-01T05:25:28;98324.75;;;15.92;100.00
37778;BME280;23615;51.506;7.678;2023-08-01T05:27:53;98335.00;;;15.90;100.00
37778;BME280;23615;51.506;7.678;2023-08-01T05:30:19;98333.69;;;16.01;100.00
37778;BME280;23615;51.506;7.678;2023-08-01T05:32:44;98340.38;;;15.90;100.00
37778;BME280;23615;51.506;7.678;2023-08-01T05:35:10;98338.09;;;15.84;100.00
37778;BME280;23615;51.506;7.678;2023-08-01T05:37:36;98344.84;;;15.81;100.00
37778;BME280;23615;51.506;7.678;2023-08-01T05:40:04;98347.25;;;15.83;100.00
37778;BME280;23615;51.506;7.678;2023-08-01T05:42:30;98341.97;;;15.91;100.00
37778;BME280;23615;51.506;7.678;2023-08-01T05:44:55;98346.34;;;15.87;100.00
37778;BME280;23615;51.506;7.678;2023-08-01T05:47:20;98340.78;;;15.84;100.00
37778;BME280;23615;51.506;7.678;2023-08-01T05:49:48;98346.03;;;15.89;100.00
37778;BME280;23615;51.506;7.678;2023-08-01T05:52:13;98354.22;;;15.84;100.00
37778;BME280;23615;51.506;7.678;2023-08-01T05:54:38;98354.91;;;15.89;100.00
37778;BME280;23615;51.506;7.678;2023-08-01T05:57:04;98355.78;;;15.85;100.00
37778;BME280;23615;51.506;7.678;2023-08-01T05:59:30;98354.41;;;15.87;100.00
37778;BME280;23615;51.506;7.678;2023-08-01T06:01:55;98350.50;;;15.93;100.00
37778;BME280;23615;51.506;7.678;2023-08-01T06:04:20;98357.41;;;15.99;100.00
37778;BME280;23615;51.506;7.678;2023-08-01T06:06:46;98350.44;;;15.98;100.00
37778;BME280;23615;51.506;7.678;2023-08-01T06:09:11;98348.03;;;15.97;100.00
37778;BME280;23615;51.506;7.678;2023-08-01T06:11:36;98357.28;;;16.04;100.00
37778;BME280;23615;51.506;7.678;2023-08-01T06:14:02;98370.84;;;16.13;100.00
37778;BME280;23615;51.506;7.678;2023-08-01T06:16:27;98351.63;;;16.06;100.00
37778;BME280;23615;51.506;7.678;2023-08-01T06:18:52;98358.31;;;16.08;100.00
37778;BME280;23615;51.506;7.678;2023-08-01T06:21:18;98359.41;;;16.07;100.00
37778;BME280;23615;51.506;7.678;2023-08-01T06:23:44;98361.38;;;16.16;100.00
37778;BME280;23615;51.506;7.678;2023-08-01T06:26:09;98356.00;;;16.16;100.00
37778;BME280;23615;51.506;7.678;2023-08-01T06:28:34;98364.38;;;16.14;100.00
37778;BME280;23615;51.506;7.678;2023-08-01T06:30:59;98366.97;;;16.19;100.00
37778;BME280;23615;51.506;7.678;2023-08-01T06:33:25;98369.44;;;16.16;100.00
37778;BME280;23615;51.506;7.678;2023-08-01T06:35:50;98369.06;;;16.08;100.00
37778;BME280;23615;51.506;7.678;2023-08-01T06:38:15;98372.66;;;16.18;100.00
37778;BME280;23615;51.506;7.678;2023-08-01T06:40:41;98372.13;;;16.16;100.00
37778;BME280;23615;51.506;7.678;2023-08-01T06:43:06;98367.56;;;16.16;100.00
37778;BME280;23615;51.506;7.678;2023-08-01T06:48:36;98375.94;;;16.01;100.00
37778;BME280;23615;51.506;7.678;2023-08-01T06:51:01;98367.97;;;16.09;100.00
37778;BME280;23615;51.506;7.678;2023-08-01T06:53:29;98375.53;;;16.07;100.00
37778;BME280;23615;51.506;7.678;2023-08-01T06:55:55;98373.66;;;16.08;100.00
37778;BME280;23615;51.506;7.678;2023-08-01T06:58:20;98376.03;;;16.09;100.00
37778;BME280;23615;51.506;7.678;2023-08-01T07:00:45;98371.03;;;16.17;100.00
37778;BME280;23615;51.506;7.678;2023-08-01T07:03:11;98369.75;;;16.14;100.00
37778;BME280;23615;51.506;7.678;2023-08-01T07:05:37;98376.84;;;16.10;100.00
37778;BME280;23615;51.506;7.678;2023-08-01T07:08:02;98376.94;;;16.19;100.00
37778;BME280;23615;51.506;7.678;2023-08-01T07:10:27;98381.59;;;16.27;100.00
37778;BME280;23615;51.506;7.678;2023-08-01T07:12:53;98382.59;;;16.31;100.00
37778;BME280;23615;51.506;7.678;2023-08-01T07:15:18;98381.09;;;16.38;100.00
37778;BME280;23615;51.506;7.678;2023-08-01T07:17:43;98385.56;;;16.43;100.00
37778;BME280;23615;51.506;7.678;2023-08-01T07:20:09;98378.50;;;16.47;100.00
37778;BME280;23615;51.506;7.678;2023-08-01T07:22:34;98374.69;;;16.48;100.00
37778;BME280;23615;51.506;7.678;2023-08-01T07:25:00;98369.41;;;16.43;100.00
37778;BME280;23615;51.506;7.678;2023-08-01T07:27:25;98381.09;;;16.38;100.00
37778;BME280;23615;51.506;7.678;2023-08-01T07:29:50;98384.09;;;16.37;100.00
37778;BME280;23615;51.506;7.678;2023-08-01T07:32:16;98379.97;;;16.39;100.00
37778;BME280;23615;51.506;7.678;2023-08-01T07:34:41;98383.00;;;16.38;100.00
37778;BME280;23615;51.506;7.678;2023-08-01T07:37:06;98391.16;;;16.33;100.00
37778;BME280;23615;51.506;7.678;2023-08-01T07:39:31;98384.81;;;16.29;100.00
37778;BME280;23615;51.506;7.678;2023-08-01T07:41:59;98388.28;;;16.29;100.00
37778;BME280;23615;51.506;7.678;2023-08-01T07:44:24;98394.44;;;16.30;100.00
37778;BME280;23615;51.506;7.678;2023-08-01T07:46:49;98398.81;;;16.39;100.00
37778;BME280;23615;51.506;7.678;2023-08-01T07:49:15;98396.84;;;16.45;100.00
37778;BME280;23615;51.506;7.678;2023-08-01T07:51:41;98398.91;;;16.48;100.00
37778;BME280;23615;51.506;7.678;2023-08-01T07:54:06;98397.81;;;16.49;100.00
37778;BME280;23615;51.506;7.678;2023-08-01T07:56:31;98393.63;;;16.57;100.00
37778;BME280;23615;51.506;7.678;2023-08-01T07:58:57;98399.31;;;16.55;100.00
37778;BME280;23615;51.506;7.678;2023-08-01T08:01:22;98403.59;;;16.70;100.00
37778;BME280;23615;51.506;7.678;2023-08-01T08:03:48;98404.56;;;16.60;100.00
37778;BME280;23615;51.506;7.678;2023-08-01T08:06:13;98410.09;;;16.55;100.00
37778;BME280;23615;51.506;7.678;2023-08-01T08:08:39;98410.56;;;16.71;100.00
37778;BME280;23615;51.506;7.678;2023-08-01T08:11:04;98418.13;;;16.82;100.00
37778;BME280;23615;51.506;7.678;2023-08-01T08:13:29;98427.19;;;16.87;100.00
37778;BME280;23615;51.506;7.678;2023-08-01T08:15:57;98420.13;;;16.77;100.00
37778;BME280;23615;51.506;7.678;2023-08-01T08:18:22;98417.13;;;16.78;100.00
37778;BME280;23615;51.506;7.678;2023-08-01T08:20:48;98416.91;;;16.89;100.00
37778;BME280;23615;51.506;7.678;2023-08-01T08:23:13;98414.88;;;16.94;100.00
37778;BME280;23615;51.506;7.678;2023-08-01T08:25:39;98416.88;;;17.02;100.00
37778;BME280;23615;51.506;7.678;2023-08-01T08:28:05;98416.97;;;16.97;100.00
37778;BME280;23615;51.506;7.678;2023-08-01T08:30:30;98408.59;;;16.99;100.00
37778;BME280;23615;51.506;7.678;2023-08-01T08:32:57;98424.97;;;17.02;100.00
37778;BME280;23615;51.506;7.678;2023-08-01T08:35:23;98426.75;;;17.07;100.00
37778;BME280;23615;51.506;7.678;2023-08-01T08:37:48;98421.66;;;17.05;100.00
37778;BME280;23615;51.506;7.678;2023-08-01T08:40:13;98430.78;;;17.18;100.00
37778;BME280;23615;51.506;7.678;2023-08-01T08:42:39;98428.03;;;17.32;100.00
37778;BME280;23615;51.506;7.678;2023-08-01T08:45:05;98432.28;;;17.46;100.00
37778;BME280;23615;51.506;7.678;2023-08-01T08:47:36;98433.97;;;17.42;100.00
37778;BME280;23615;51.506;7.678;2023-08-01T08:50:02;98433.88;;;17.47;100.00
37778;BME280;23615;51.506;7.678;2023-08-01T08:52:27;98434.28;;;17.41;100.00
37778;BME280;23615;51.506;7.678;2023-08-01T08:54:53;98425.59;;;17.44;100.00
37778;BME280;23615;51.506;7.678;2023-08-01T08:57:19;98422.44;;;17.50;100.00
37778;BME280;23615;51.506;7.678;2023-08-01T08:59:46;98428.03;;;17.54;100.00
37778;BME280;23615;51.506;7.678;2023-08-01T09:02:14;98431.53;;;17.54;99.84
37778;BME280;23615;51.506;7.678;2023-08-01T09:04:40;98428.38;;;17.61;98.21
37778;BME280;23615;51.506;7.678;2023-08-01T09:07:09;98430.88;;;17.57;98.27
37778;BME280;23615;51.506;7.678;2023-08-01T09:09:35;98424.63;;;17.62;98.87
37778;BME280;23615;51.506;7.678;2023-08-01T09:12:02;98421.16;;;17.70;97.20
37778;BME280;23615;51.506;7.678;2023-08-01T09:14:27;98421.06;;;17.75;97.84
37778;BME280;23615;51.506;7.678;2023-08-01T09:16:53;98426.59;;;17.79;98.38
37778;BME280;23615;51.506;7.678;2023-08-01T09:19:19;98432.31;;;17.77;96.86
37778;BME280;23615;51.506;7.678;2023-08-01T09:21:45;98430.25;;;17.74;97.83
37778;BME280;23615;51.506;7.678;2023-08-01T09:26:38;98433.38;;;17.68;97.70
37778;BME280;23615;51.506;7.678;2023-08-01T09:29:04;98428.59;;;17.65;97.30
37778;BME280;23615;51.506;7.678;2023-08-01T09:31:34;98427.66;;;17.69;98.37
37778;BME280;23615;51.506;7.678;2023-08-01T09:34:01;98440.19;;;17.65;96.35
37778;BME280;23615;51.506;7.678;2023-08-01T09:36:26;98429.63;;;17.55;97.67
37778;BME280;23615;51.506;7.678;2023-08-01T09:38:58;98435.69;;;17.61;100.00
37778;BME280;23615;51.506;7.678;2023-08-01T09:41:24;98439.47;;;17.59;100.00
37778;BME280;23615;51.506;7.678;2023-08-01T09:43:49;98434.03;;;17.51;100.00
37778;BME280;23615;51.506;7.678;2023-08-01T09:46:15;98428.81;;;17.54;100.00
37778;BME280;23615;51.506;7.678;2023-08-01T09:48:41;98426.44;;;17.53;100.00
37778;BME280;23615;51.506;7.678;2023-08-01T09:51:11;98438.63;;;17.50;100.00
37778;BME280;23615;51.506;7.678;2023-08-01T09:53:53;98428.59;;;17.65;100.00
37778;BME280;23615;51.506;7.678;2023-08-01T09:58:46;98435.28;;;17.98;100.00
37778;BME280;23615;51.506;7.678;2023-08-01T10:01:17;98431.69;;;18.11;100.00
37778;BME280;23615;51.506;7.678;2023-08-01T10:03:47;98440.28;;;18.22;97.92
37778;BME280;23615;51.506;7.678;2023-08-01T10:06:18;98427.63;;;18.31;97.11
37778;BME280;23615;51.506;7.678;2023-08-01T10:08:45;98429.59;;;18.48;96.03
37778;BME280;23615;51.506;7.678;2023-08-01T10:11:12;98431.50;;;18.56;96.02
37778;BME280;23615;51.506;7.678;2023-08-01T10:13:41;98419.13;;;18.55;93.28
37778;BME280;23615;51.506;7.678;2023-08-01T10:16:06;98433.25;;;18.52;94.10
37778;BME280;23615;51.506;7.678;2023-08-01T10:18:33;98420.69;;;18.47;94.25
37778;BME280;23615;51.506;7.678;2023-08-01T10:21:00;98422.78;;;18.59;94.72
37778;BME280;23615;51.506;7.678;2023-08-01T10:23:26;98426.94;;;18.65;93.93
37778;BME280;23615;51.506;7.678;2023-08-01T10:25:52;98413.59;;;18.77;93.27
37778;BME280;23615;51.506;7.678;2023-08-01T10:28:18;98420.13;;;18.85;91.50
37778;BME280;23615;51.506;7.678;2023-08-01T10:30:44;98423.31;;;18.95;90.43
37778;BME280;23615;51.506;7.678;2023-08-01T10:33:09;98413.47;;;19.17;90.23
37778;BME280;23615;51.506;7.678;2023-08-01T10:35:39;98428.56;;;19.35;89.62
37778;BME280;23615;51.506;7.678;2023-08-01T10:38:06;98427.44;;;19.36;89.71
37778;BME280;23615;51.506;7.678;2023-08-01T10:40:42;98425.25;;;19.21;87.02
37778;BME280;23615;51.506;7.678;2023-08-01T10:43:23;98419.19;;;19.15;87.07
37778;BME280;23615;51.506;7.678;2023-08-01T10:46:03;98416.34;;;19.12;88.64
37778;BME280;23615;51.506;7.678;2023-08-01T10:48:28;98418.06;;;19.16;88.49
37778;BME280;23615;51.506;7.678;2023-08-01T10:50:57;98420.78;;;19.16;86.14
37778;BME280;23615;51.506;7.678;2023-08-01T10:53:23;98431.78;;;19.02;86.16
37778;BME280;23615;51.506;7.678;2023-08-01T10:55:48;98472.75;;;18.79;89.66
37778;BME280;23615;51.506;7.678;2023-08-01T10:58:14;98450.13;;;17.87;95.12
37778;BME280;23615;51.506;7.678;2023-08-01T11:00:41;98454.81;;;17.50;99.03
37778;BME280;23615;51.506;7.678;2023-08-01T11:03:06;98452.59;;;17.30;100.00
37778;BME280;23615;51.506;7.678;2023-08-01T11:05:31;98454.13;;;17.23;100.00
37778;BME280;23615;51.506;7.678;2023-08-01T11:07:58;98458.25;;;17.20;100.00
37778;BME280;23615;51.506;7.678;2023-08-01T11:10:29;98447.13;;;17.21;100.00
37778;BME280;23615;51.506;7.678;2023-08-01T11:12:55;98453.09;;;17.32;100.00
37778;BME280;23615;51.506;7.678;2023-08-01T11:15:20;98452.53;;;17.44;100.00
37778;BME280;23615;51.506;7.678;2023-08-01T11:17:50;98462.88;;;17.64;100.00
37778;BME280;23615;51.506;7.678;2023-08-01T11:20:17;98462.94;;;17.73;100.00
37778;BME280;23615;51.506;7.678;2023-08-01T11:23:00;98468.22;;;17.86;100.00
37778;BME280;23615;51.506;7.678;2023-08-01T11:28:10;98457.56;;;18.12;100.00
37778;BME280;23615;51.506;7.678;2023-08-01T11:30:36;98450.09;;;18.09;100.00
37778;BME280;23615;51.506;7.678;2023-08-01T11:33:12;98451.84;;;18.14;100.00
37778;BME280;23615;51.506;7.678;2023-08-01T11:35:38;98443.91;;;18.09;100.00
37778;BME280;23615;51.506;7.678;2023-08-01T11:38:03;98442.63;;;18.06;100.00
37778;BME280;23615;51.506;7.678;2023-08-01T11:40:29;98492.97;;;18.11;100.00
37778;BME280;23615;51.506;7.678;2023-08-01T11:42:56;98513.19;;;17.91;100.00
37778;BME280;23615;51.506;7.678;2023-08-01T11:45:22;98529.56;;;17.36;100.00
37778;BME280;23615;51.506;7.678;2023-08-01T11:47:48;98525.06;;;16.96;100.00
37778;BME280;23615;51.506;7.678;2023-08-01T11:50:14;98533.44;;;17.08;100.00
37778;BME280;23615;51.506;7.678;2023-08-01T11:52:39;98528.03;;;17.08;100.00
37778;BME280;23615;51.506;7.678;2023-08-01T11:55:05;98517.81;;;16.82;100.00
37778;BME280;23615;51.506;7.678;2023-08-01T11:57:31;98515.09;;;16.69;100.00
37778;BME280;23615;51.506;7.678;2023-08-01T11:59:56;98505.72;;;16.80;100.00
37778;BME280;23615;51.506;7.678;2023-08-01T12:02:25;98500.34;;;16.80;100.00
37778;BME280;23615;51.506;7.678;2023-08-01T12:04:53;98505.22;;;16.92;100.00
37778;BME280;23615;51.506;7.678;2023-08-01T12:07:19;98500.59;;;17.06;100.00
37778;BME280;23615;51.506;7.678;2023-08-01T12:09:54;98504.00;;;17.11;100.00
37778;BME280;23615;51.506;7.678;2023-08-01T12:12:20;98517.25;;;17.08;100.00
37778;BME280;23615;51.506;7.678;2023-08-01T12:14:45;98501.88;;;17.08;100.00
37778;BME280;23615;51.506;7.678;2023-08-01T12:17:10;98519.66;;;17.09;100.00
37778;BME280;23615;51.506;7.678;2023-08-01T12:19:35;98520.56;;;17.05;100.00
37778;BME280;23615;51.506;7.678;2023-08-01T12:22:01;98523.16;;;17.10;100.00
37778;BME280;23615;51.506;7.678;2023-08-01T12:24:26;98527.63;;;17.14;100.00
37778;BME280;23615;51.506;7.678;2023-08-01T12:26:51;98526.81;;;17.14;100.00
37778;BME280;23615;51.506;7.678;2023-08-01T12:29:17;98533.00;;;17.14;100.00
37778;BME280;23615;51.506;7.678;2023-08-01T12:31:42;98532.34;;;17.09;99.32
37778;BME280;23615;51.506;7.678;2023-08-01T12:34:07;98534.31;;;17.17;100.00
37778;BME280;23615;51.506;7.678;2023-08-01T12:36:33;98536.22;;;17.16;99.94
37778;BME280;23615;51.506;7.678;2023-08-01T12:38:58;98547.38;;;17.24;100.00
37778;BME280;23615;51.506;7.678;2023-08-01T12:41:23;98533.16;;;17.32;100.00
37778;BME280;23615;51.506;7.678;2023-08-01T12:43:49;98541.22;;;17.45;100.00
37778;BME280;23615;51.506;7.678;2023-08-01T12:46:15;98544.81;;;17.77;100.00
37778;BME280;23615;51.506;7.678;2023-08-01T12:48:40;98544.94;;;17.94;100.00
37778;BME280;23615;51.506;7.678;2023-08-01T12:51:05;98544.56;;;17.87;100.00
37778;BME280;23615;51.506;7.678;2023-08-01T12:53:31;98541.50;;;17.80;100.00